Home > Products > Valid Products > TAF

000
FTUS46 KHNX 310541
TAFFAT
TAF
KFAT 310541Z 3106/0106 VRB03KT 6SM HZ FEW150 BKN200
     FM312200 17006KT P6SM BKN050 OVC100
     FM010200 29010KT 4SM RA SCT015 OVC025=



000
FTUS46 KHNX 310541
TAFBFL
TAF
KBFL 310541Z 3106/0106 VRB05KT P6SM FEW150 BKN200
     FM312100 27010KT P6SM SCT070 BKN120
     FM010300 32014G21KT P6SM BKN050 OVC100 PROB30 0103/0106 4SM RA
      SCT020 BKN030=



000
FTUS46 KHNX 310541
TAFMCE
TAF
KMCE 310541Z 3106/0106 VRB03KT 6SM HZ FEW150 BKN200
     FM311300 14003KT 6SM HZ SCT100 BKN150
     FM312100 21007KT P6SM BKN050 OVC100
     FM010100 27009KT 4SM RA SCT015 OVC025=



000
FTUS46 KHNX 302322
TAFFAT
TAF
KFAT 302322Z 3100/3124 VRB03KT 6SM HZ FEW150 BKN250
     FM312200 17006KT P6SM SCT050 BKN100 BKN150=



000
FTUS46 KHNX 302322
TAFMCE
TAF
KMCE 302322Z 3100/3124 VRB03KT 6SM HZ FEW150 BKN250
     FM311300 14003KT 6SM HZ SCT100 BKN150
     FM312200 18007KT P6SM SCT050 BKN100 BKN150=



000
FTUS46 KHNX 302322
TAFBFL
TAF
KBFL 302322Z 3100/3124 29007KT P6SM BKN250
     FM310300 06003KT P6SM FEW150 BKN200
     FM311000 15004KT P6SM SCT120 BKN200
     FM312100 26007KT P6SM SCT100 BKN180=



000
FTUS46 KHNX 301721
TAFMCE
TAF
KMCE 301721Z 3018/3118 VRB03KT P6SM FEW150 BKN250
     FM311300 14003KT P6SM SCT100 BKN150=



000
FTUS46 KHNX 301721
TAFFAT
TAF
KFAT 301721Z 3018/3118 VRB03KT P6SM FEW150 BKN250=



000
FTUS46 KHNX 301721
TAFBFL
TAF
KBFL 301721Z 3018/3118 VRB04KT P6SM FEW150 BKN250
     FM302000 29007KT P6SM BKN250
     FM310300 06003KT P6SM FEW150 BKN200=



000
FTUS46 KHNX 301126
TAFMCE
TAF
KMCE 301126Z 3012/3112 VRB03KT P6SM FEW150 BKN250=



000
FTUS46 KHNX 301126
TAFBFL
TAF
KBFL 301126Z 3012/3112 VRB04KT P6SM FEW150 BKN250
     FM301900 30008KT P6SM BKN250
     FM310200 VRB04KT P6SM BKN200=



000
FTUS46 KHNX 301126
TAFFAT
TAF
KFAT 301126Z 3012/3112 VRB03KT P6SM FEW150 BKN250=



000
FTUS46 KHNX 300531
TAFFAT
TAF
KFAT 300531Z 3006/3106 VRB03KT P6SM SCT250=



000
FTUS46 KHNX 300531
TAFMCE
TAF
KMCE 300531Z 3006/3106 VRB03KT P6SM SCT250=



000
FTUS46 KHNX 300531
TAFBFL
TAF
KBFL 300531Z 3006/3106 VRB04KT P6SM SCT250=



000
FTUS46 KHNX 300007 RRA
TAFBFL
TAF
KBFL 300007Z 3000/3024 VRB04KT P6SM SKC=



000
FTUS46 KHNX 300007 RRA
TAFMCE
TAF
KMCE 300007Z 3000/3024 VRB03KT P6SM SKC=



000
FTUS46 KHNX 300007 RRA
TAFFAT
TAF
KFAT 300007Z 3000/3024 VRB03KT P6SM SKC=



000
FTUS46 KHNX 291720
TAFFAT
TAF
KFAT 291720Z 2918/3018 VRB03KT P6SM SKC=



000
FTUS46 KHNX 291720
TAFBFL
TAF
KBFL 291720Z 2918/3018 VRB04KT P6SM SKC=



000
FTUS46 KHNX 291720
TAFMCE
TAF
KMCE 291720Z 2918/3018 VRB03KT P6SM SKC=



000
FTUS46 KHNX 291131
TAFMCE
TAF
KMCE 291131Z 2912/3012 VRB03KT P6SM SKC=



000
FTUS46 KHNX 291131
TAFFAT
TAF
KFAT 291131Z 2912/3012 VRB03KT P6SM SKC=



000
FTUS46 KHNX 291131
TAFBFL
TAF
KBFL 291131Z 2912/3012 VRB03KT P6SM SKC=



000
FTUS46 KHNX 290558
TAFFAT
TAF
KFAT 290558Z 2906/3006 VRB04KT P6SM SKC=



000
FTUS46 KHNX 290558
TAFBFL
TAF
KBFL 290558Z 2906/3006 VRB04KT P6SM SKC=



000
FTUS46 KHNX 290558
TAFMCE
TAF
KMCE 290558Z 2906/3006 31005KT P6SM SKC=



000
FTUS46 KHNX 282320
TAFMCE
TAF
KMCE 282320Z 2900/2924 31005KT P6SM SKC=



000
FTUS46 KHNX 282320
TAFBFL
TAF
KBFL 282320Z 2900/2924 VRB04KT P6SM SKC=



000
FTUS46 KHNX 282320
TAFFAT
TAF
KFAT 282320Z 2900/2924 VRB04KT P6SM SKC=



000
FTUS46 KHNX 281739
TAFMCE
TAF
KMCE 281739Z 2818/2918 27004KT P6SM SKC=



000
FTUS46 KHNX 281739
TAFFAT
TAF
KFAT 281739Z 2818/2918 13007KT P6SM SKC=



000
FTUS46 KHNX 281739
TAFBFL
TAF
KBFL 281739Z 2818/2918 30007KT P6SM SKC
     FM290300 VRB04KT P6SM SKC
     FM291500 15006KT P6SM SKC=



000
FTUS46 KHNX 281120
TAFFAT
TAF
KFAT 281120Z 2812/2912 VRB04KT P6SM SKC=



000
FTUS46 KHNX 281120
TAFMCE
TAF
KMCE 281120Z 2812/2912 32005KT P6SM SKC=



000
FTUS46 KHNX 281120
TAFBFL
TAF
KBFL 281120Z 2812/2912 VRB04KT P6SM SKC
     FM282100 30007KT P6SM SKC
     FM290300 VRB04KT P6SM SKC=



    US Dept of Commerce
    National Oceanic and Atmospheric Administration
    National Weather Service
    1325 East West Highway
    Silver Spring, MD 20910
    Page Author: NWS Internet Services Team
Disclaimer
Information Quality
Credits
Glossary
Privacy Policy
Freedom of Information Act (FOIA)
About Us
Career Opportunities